createdAt,value
2023-05-17T00:02:06.686Z,12.61
2023-05-17T00:04:33.829Z,12.53
2023-05-17T00:07:00.871Z,12.58
2023-05-17T00:09:27.874Z,12.53
2023-05-17T00:11:54.701Z,12.50
2023-05-17T00:14:21.588Z,12.42
2023-05-17T00:16:48.443Z,12.49
2023-05-17T00:19:15.457Z,12.52
2023-05-17T00:21:42.494Z,12.46
2023-05-17T00:24:09.475Z,12.34
2023-05-17T00:26:36.634Z,12.34
2023-05-17T00:29:03.590Z,12.33
2023-05-17T00:31:30.489Z,12.39
2023-05-17T00:33:57.437Z,12.36
2023-05-17T00:36:24.369Z,12.37
2023-05-17T00:38:51.196Z,12.26
2023-05-17T00:41:18.548Z,12.31
2023-05-17T00:43:45.523Z,12.29
2023-05-17T00:46:12.362Z,12.27
2023-05-17T00:48:39.512Z,12.29
2023-05-17T00:51:07.051Z,12.34
2023-05-17T00:53:36.462Z,12.22
2023-05-17T00:56:04.145Z,12.16
2023-05-17T00:58:31.015Z,12.24
2023-05-17T01:00:59.510Z,12.17
2023-05-17T01:03:26.559Z,12.16
2023-05-17T01:05:53.638Z,12.20
2023-05-17T01:08:21.102Z,12.15
2023-05-17T01:11:06.702Z,12.09
2023-05-17T01:13:53.423Z,12.08
2023-05-17T01:16:30.392Z,12.02
2023-05-17T01:19:17.147Z,11.97
2023-05-17T01:22:28.682Z,11.98
2023-05-17T01:25:04.919Z,11.96
2023-05-17T01:27:32.911Z,12.00
2023-05-17T01:30:02.643Z,12.00
2023-05-17T01:32:30.904Z,11.96
2023-05-17T01:34:57.822Z,11.98
2023-05-17T01:37:24.677Z,11.91
2023-05-17T01:39:51.584Z,11.83
2023-05-17T01:42:24.612Z,11.80
2023-05-17T01:45:25.095Z,11.78
2023-05-17T01:48:11.843Z,11.77
2023-05-17T01:50:40.033Z,11.87
2023-05-17T01:53:12.127Z,11.96
2023-05-17T01:55:52.290Z,11.96
2023-05-17T01:58:22.757Z,12.03
2023-05-17T02:00:52.761Z,11.98
2023-05-17T02:03:20.505Z,11.89
2023-05-17T02:05:47.646Z,11.90
2023-05-17T02:08:14.626Z,11.97
2023-05-17T02:10:41.473Z,11.91
2023-05-17T02:13:08.311Z,11.94
2023-05-17T02:15:35.293Z,11.91
2023-05-17T02:18:02.265Z,11.93
2023-05-17T02:20:29.216Z,11.92
2023-05-17T02:22:56.030Z,11.86
2023-05-17T02:25:22.875Z,11.80
2023-05-17T02:27:49.705Z,11.84
2023-05-17T02:30:18.014Z,11.80
2023-05-17T02:32:45.532Z,11.87
2023-05-17T02:35:12.574Z,11.84
2023-05-17T02:37:39.567Z,11.78
2023-05-17T02:40:10.519Z,11.78
2023-05-17T02:42:38.145Z,11.76
2023-05-17T02:45:05.524Z,11.77
2023-05-17T02:47:32.519Z,11.73
2023-05-17T02:49:59.458Z,11.78
2023-05-17T02:52:26.309Z,11.73
2023-05-17T02:54:53.268Z,11.72
2023-05-17T02:57:20.114Z,11.67
2023-05-17T02:59:47.049Z,11.55
2023-05-17T03:02:13.933Z,11.55
2023-05-17T03:04:40.882Z,11.58
2023-05-17T03:07:07.973Z,11.53
2023-05-17T03:09:35.106Z,11.53
2023-05-17T03:12:01.980Z,11.48
2023-05-17T03:14:28.897Z,11.46
2023-05-17T03:16:55.773Z,11.49
2023-05-17T03:19:22.762Z,11.43
2023-05-17T03:21:49.720Z,11.43
2023-05-17T03:24:16.573Z,11.45
2023-05-17T03:26:43.482Z,11.43
2023-05-17T03:29:10.474Z,11.35
2023-05-17T03:31:37.512Z,11.31
2023-05-17T03:34:04.417Z,11.31
2023-05-17T03:36:31.401Z,11.25
2023-05-17T03:38:58.238Z,11.13
2023-05-17T03:41:25.113Z,11.12
2023-05-17T03:43:52.029Z,11.09
2023-05-17T03:46:18.910Z,11.08
2023-05-17T03:48:45.794Z,11.01
2023-05-17T03:51:12.664Z,11.09
2023-05-17T03:53:43.116Z,11.10
2023-05-17T03:56:10.938Z,11.14
2023-05-17T03:58:37.959Z,11.17
2023-05-17T04:01:05.292Z,11.23
2023-05-17T04:03:32.324Z,11.27
2023-05-17T04:06:07.827Z,11.34
2023-05-17T04:08:35.662Z,11.31
2023-05-17T04:11:10.509Z,11.34
2023-05-17T04:13:37.619Z,11.40
2023-05-17T04:16:04.903Z,11.38
2023-05-17T04:18:35.704Z,11.40
2023-05-17T04:21:03.414Z,11.50
2023-05-17T04:23:33.189Z,11.51
2023-05-17T04:26:00.135Z,11.63
2023-05-17T04:28:27.399Z,11.70
2023-05-17T04:30:56.545Z,11.87
2023-05-17T04:33:24.442Z,11.93
2023-05-17T04:35:54.844Z,11.88
2023-05-17T04:38:21.783Z,12.04
2023-05-17T04:40:48.665Z,11.97
2023-05-17T04:43:15.491Z,11.98
2023-05-17T04:45:42.946Z,12.11
2023-05-17T04:48:09.884Z,11.97
2023-05-17T04:50:36.857Z,12.10
2023-05-17T04:53:03.720Z,12.20
2023-05-17T04:55:30.783Z,12.25
2023-05-17T04:57:57.771Z,12.19
2023-05-17T05:00:25.057Z,12.22
2023-05-17T05:02:52.010Z,12.16
2023-05-17T05:05:20.478Z,12.14
2023-05-17T05:07:47.388Z,12.23
2023-05-17T05:10:14.248Z,12.31
2023-05-17T05:12:41.202Z,12.34
2023-05-17T05:15:08.872Z,12.45
2023-05-17T05:17:35.917Z,12.59
2023-05-17T05:20:03.733Z,12.63
2023-05-17T05:22:30.662Z,12.77
2023-05-17T05:24:57.518Z,12.91
2023-05-17T05:27:24.398Z,12.84
2023-05-17T05:29:51.309Z,12.84
2023-05-17T05:32:18.955Z,12.77
2023-05-17T05:34:45.983Z,13.00
2023-05-17T05:37:12.853Z,12.99
2023-05-17T05:39:39.781Z,12.80
2023-05-17T05:42:06.980Z,13.03
2023-05-17T05:44:33.895Z,13.01
2023-05-17T05:47:00.849Z,13.00
2023-05-17T05:49:27.732Z,13.24
2023-05-17T05:51:54.702Z,12.75
2023-05-17T05:54:21.609Z,13.14
2023-05-17T05:56:48.542Z,13.26
2023-05-17T05:59:15.457Z,13.39
2023-05-17T06:01:42.340Z,13.44
2023-05-17T06:04:09.353Z,13.40
2023-05-17T06:06:36.971Z,13.58
2023-05-17T06:09:05.879Z,13.81
2023-05-17T06:11:33.047Z,13.61
2023-05-17T06:13:59.960Z,13.72
2023-05-17T06:16:26.931Z,13.89
2023-05-17T06:18:53.917Z,14.03
2023-05-17T06:21:20.845Z,13.99
2023-05-17T06:23:48.092Z,14.28
2023-05-17T06:26:14.964Z,14.44
2023-05-17T06:28:41.860Z,14.46
2023-05-17T06:31:08.707Z,14.56
2023-05-17T06:33:35.646Z,14.28
2023-05-17T06:38:30.258Z,15.00
2023-05-17T06:40:58.547Z,15.04
2023-05-17T06:43:25.606Z,14.95
2023-05-17T06:45:52.574Z,15.07
2023-05-17T06:48:19.624Z,15.16
2023-05-17T06:50:46.665Z,15.25
2023-05-17T06:53:13.508Z,15.05
2023-05-17T06:55:40.865Z,15.30
2023-05-17T06:58:07.728Z,15.28
2023-05-17T07:00:34.836Z,14.99
2023-05-17T07:03:01.863Z,14.67
2023-05-17T07:05:30.972Z,14.94
2023-05-17T07:07:59.149Z,15.05
2023-05-17T07:10:26.299Z,14.65
2023-05-17T07:12:53.578Z,14.78
2023-05-17T07:15:20.581Z,15.48
2023-05-17T07:17:47.585Z,15.09
2023-05-17T07:20:14.992Z,15.38
2023-05-17T07:22:42.106Z,15.58
2023-05-17T07:25:10.177Z,15.91
2023-05-17T07:27:37.226Z,15.75
2023-05-17T07:30:04.722Z,15.45
2023-05-17T07:32:31.659Z,15.75
2023-05-17T07:34:58.595Z,16.20
2023-05-17T07:37:25.430Z,16.33
2023-05-17T07:39:52.335Z,16.64
2023-05-17T07:42:19.201Z,16.73
2023-05-17T07:44:48.587Z,16.92
2023-05-17T07:47:16.363Z,16.61
2023-05-17T07:49:43.374Z,16.96
2023-05-17T07:52:10.263Z,16.87
2023-05-17T07:54:37.156Z,17.29
2023-05-17T07:57:04.171Z,17.17
2023-05-17T07:59:31.105Z,17.07
2023-05-17T08:01:58.085Z,16.96
2023-05-17T08:04:25.010Z,17.01
2023-05-17T08:06:52.764Z,17.17
2023-05-17T08:09:22.446Z,16.81
2023-05-17T08:11:49.393Z,16.57
2023-05-17T08:14:17.084Z,16.79
2023-05-17T08:16:45.722Z,16.70
2023-05-17T08:19:15.016Z,17.33
2023-05-17T08:21:42.746Z,16.91
2023-05-17T08:24:10.128Z,17.07
2023-05-17T08:26:39.787Z,17.61
2023-05-17T08:29:06.692Z,17.71
2023-05-17T08:31:33.802Z,18.06
2023-05-17T08:34:00.927Z,18.33
2023-05-17T08:36:28.412Z,17.99
2023-05-17T08:38:55.436Z,18.00
2023-05-17T08:41:22.801Z,18.11
2023-05-17T08:43:50.967Z,18.21
2023-05-17T08:46:22.616Z,18.00
2023-05-17T08:48:56.033Z,18.26
2023-05-17T08:51:23.245Z,17.61
2023-05-17T08:53:50.714Z,18.27
2023-05-17T08:56:20.744Z,18.08
2023-05-17T08:58:57.255Z,17.92
2023-05-17T09:01:27.425Z,18.66
2023-05-17T09:03:55.401Z,19.18
2023-05-17T09:06:24.066Z,19.51
2023-05-17T09:08:55.510Z,18.62
2023-05-17T09:11:32.803Z,19.50
2023-05-17T09:14:01.995Z,19.53
2023-05-17T09:16:31.116Z,19.41
2023-05-17T09:18:59.742Z,19.05
2023-05-17T09:21:28.097Z,19.58
2023-05-17T09:26:25.910Z,20.29
2023-05-17T09:28:53.468Z,20.50
2023-05-17T09:31:20.643Z,19.71
2023-05-17T09:33:52.064Z,19.10
2023-05-17T09:36:23.860Z,19.19
2023-05-17T09:38:55.506Z,19.13
2023-05-17T09:41:26.732Z,19.16
2023-05-17T09:43:53.627Z,19.28
2023-05-17T09:46:20.840Z,19.31
2023-05-17T09:48:54.616Z,19.23
2023-05-17T09:51:36.853Z,19.02
2023-05-17T09:54:03.783Z,19.09
2023-05-17T09:56:31.397Z,19.48
2023-05-17T09:59:01.426Z,19.35
2023-05-17T10:01:30.825Z,19.47
2023-05-17T10:04:04.699Z,19.23
2023-05-17T10:06:46.031Z,19.43
2023-05-17T10:09:16.940Z,19.50
2023-05-17T10:11:47.230Z,19.93
2023-05-17T10:14:32.410Z,20.12
2023-05-17T10:17:01.146Z,19.73
2023-05-17T10:19:28.707Z,20.11
2023-05-17T10:22:05.204Z,20.75
2023-05-17T10:24:46.573Z,19.89
2023-05-17T10:27:14.109Z,20.44
2023-05-17T10:29:42.284Z,20.52
2023-05-17T10:32:10.492Z,21.04
2023-05-17T10:34:39.842Z,21.55
2023-05-17T10:37:06.804Z,21.27
2023-05-17T10:39:35.038Z,21.68
2023-05-17T10:44:40.255Z,21.63
2023-05-17T10:47:08.823Z,21.96
2023-05-17T10:49:40.013Z,21.44
2023-05-17T10:52:16.244Z,21.56
2023-05-17T10:54:45.612Z,21.72
2023-05-17T10:57:49.848Z,21.34
2023-05-17T11:00:21.877Z,22.14
2023-05-17T11:02:50.504Z,21.47
2023-05-17T11:05:27.210Z,21.33
2023-05-17T11:08:17.312Z,22.51
2023-05-17T11:11:10.066Z,21.63
2023-05-17T11:14:04.951Z,21.62
2023-05-17T11:16:37.348Z,21.67
2023-05-17T11:19:10.285Z,21.73
2023-05-17T11:21:46.569Z,21.85
2023-05-17T11:24:23.982Z,21.88
2023-05-17T11:26:51.681Z,21.34
2023-05-17T11:29:18.630Z,21.70
2023-05-17T11:31:53.347Z,20.86
2023-05-17T11:34:20.445Z,21.23
2023-05-17T11:36:55.208Z,21.26
2023-05-17T11:39:24.346Z,22.22
2023-05-17T11:41:56.447Z,21.90
2023-05-17T11:44:33.681Z,21.33
2023-05-17T11:47:11.415Z,21.71
2023-05-17T11:49:40.172Z,21.54
2023-05-17T11:52:08.062Z,21.60
2023-05-17T11:54:35.623Z,22.31
2023-05-17T11:57:03.914Z,23.61
2023-05-17T11:59:41.175Z,23.35
2023-05-17T12:02:08.400Z,22.59
2023-05-17T12:04:39.031Z,22.97
2023-05-17T12:07:10.554Z,21.66
2023-05-17T12:09:39.750Z,21.82
2023-05-17T12:12:06.976Z,21.11
2023-05-17T12:14:33.870Z,21.78
2023-05-17T12:17:04.059Z,22.74
2023-05-17T12:19:32.524Z,23.09
2023-05-17T12:22:12.647Z,24.03
2023-05-17T12:24:43.610Z,24.63
2023-05-17T12:27:11.332Z,24.03
2023-05-17T12:29:39.391Z,22.89
2023-05-17T12:32:08.719Z,22.27
2023-05-17T12:34:36.287Z,22.01
2023-05-17T12:37:03.293Z,22.39
2023-05-17T12:39:31.600Z,22.21
2023-05-17T12:41:59.421Z,21.98
2023-05-17T12:44:26.322Z,22.98
2023-05-17T12:46:56.140Z,23.47
2023-05-17T12:49:23.564Z,23.58
2023-05-17T12:51:50.675Z,23.71
2023-05-17T12:54:28.506Z,23.44
2023-05-17T12:56:56.072Z,23.89
2023-05-17T12:59:25.643Z,22.97
2023-05-17T13:01:58.088Z,23.34
2023-05-17T13:04:33.677Z,22.64
2023-05-17T13:07:03.493Z,22.35
2023-05-17T13:09:32.436Z,22.37
2023-05-17T13:12:02.013Z,22.46
2023-05-17T13:14:47.425Z,22.72
2023-05-17T13:17:21.048Z,22.25
2023-05-17T13:19:48.380Z,22.34
2023-05-17T13:22:15.925Z,22.25
2023-05-17T13:24:44.652Z,21.50
2023-05-17T13:27:12.506Z,20.90
2023-05-17T13:29:42.519Z,21.29
2023-05-17T13:32:12.865Z,21.06
2023-05-17T13:34:40.866Z,21.10
2023-05-17T13:37:11.645Z,21.24
2023-05-17T13:39:39.626Z,21.48
2023-05-17T13:42:06.970Z,20.94
2023-05-17T13:44:33.922Z,21.83
2023-05-17T13:47:00.970Z,22.56
2023-05-17T13:49:28.596Z,22.74
2023-05-17T13:51:56.514Z,22.81
2023-05-17T13:54:23.405Z,23.32
2023-05-17T13:56:50.310Z,23.13
2023-05-17T13:59:17.218Z,23.66
2023-05-17T14:01:44.172Z,23.18
2023-05-17T14:04:11.726Z,23.70
2023-05-17T14:06:39.428Z,23.42
2023-05-17T14:09:06.390Z,23.04
2023-05-17T14:11:34.320Z,23.52
2023-05-17T14:14:01.461Z,22.80
2023-05-17T14:16:28.482Z,22.38
2023-05-17T14:18:55.811Z,23.26
2023-05-17T14:21:22.812Z,23.40
2023-05-17T14:23:49.675Z,24.18
2023-05-17T14:26:16.527Z,24.55
2023-05-17T14:28:43.425Z,24.26
2023-05-17T14:31:10.667Z,23.65
2023-05-17T14:33:37.714Z,23.23
2023-05-17T14:36:05.085Z,23.40
2023-05-17T14:38:32.157Z,22.94
2023-05-17T14:41:02.479Z,22.80
2023-05-17T14:43:29.717Z,21.96
2023-05-17T14:45:56.541Z,22.16
2023-05-17T14:48:23.532Z,22.29
2023-05-17T14:50:51.340Z,20.83
2023-05-17T14:53:18.230Z,20.42
2023-05-17T14:55:45.172Z,20.76
2023-05-17T14:58:14.836Z,20.30
2023-05-17T15:00:47.285Z,20.54
2023-05-17T15:03:14.800Z,21.28
2023-05-17T15:05:41.818Z,21.81
2023-05-17T15:08:08.795Z,21.74
2023-05-17T15:10:37.834Z,21.89
2023-05-17T15:13:04.943Z,21.90
2023-05-17T15:15:33.424Z,21.26
2023-05-17T15:18:00.721Z,20.51
2023-05-17T15:20:27.724Z,19.89
2023-05-17T15:22:54.635Z,20.62
2023-05-17T15:25:22.046Z,21.46
2023-05-17T15:27:49.295Z,21.99
2023-05-17T15:30:16.518Z,22.62
2023-05-17T15:32:44.135Z,22.22
2023-05-17T15:35:11.272Z,21.79
2023-05-17T15:37:38.142Z,22.50
2023-05-17T15:40:09.602Z,21.81
2023-05-17T15:42:37.101Z,22.04
2023-05-17T15:45:04.552Z,22.53
2023-05-17T15:47:42.400Z,21.41
2023-05-17T15:50:10.739Z,21.34
2023-05-17T15:52:37.823Z,20.72
2023-05-17T15:55:05.446Z,20.10
2023-05-17T15:57:32.489Z,20.21
2023-05-17T15:59:59.497Z,19.80
2023-05-17T16:02:26.584Z,19.31
2023-05-17T16:04:53.473Z,19.29
2023-05-17T16:07:20.326Z,19.26
2023-05-17T16:09:47.269Z,19.23
2023-05-17T16:12:14.132Z,19.21
2023-05-17T16:14:41.154Z,19.00
2023-05-17T16:17:08.865Z,18.43
2023-05-17T16:19:35.953Z,18.67
2023-05-17T16:22:02.888Z,18.06
2023-05-17T16:24:29.731Z,18.28
2023-05-17T16:26:56.768Z,17.93
2023-05-17T16:29:23.606Z,17.99
2023-05-17T16:31:51.566Z,18.33
2023-05-17T16:34:18.690Z,18.29
2023-05-17T16:36:47.823Z,18.26
2023-05-17T16:39:14.739Z,18.43
2023-05-17T16:41:41.681Z,18.31
2023-05-17T16:44:08.665Z,17.96
2023-05-17T16:46:37.480Z,17.62
2023-05-17T16:49:04.781Z,17.77
2023-05-17T16:51:31.793Z,17.94
2023-05-17T16:53:58.710Z,17.81
2023-05-17T16:56:26.377Z,17.80
2023-05-17T16:58:53.316Z,17.78
2023-05-17T17:01:20.619Z,17.45
2023-05-17T17:03:47.859Z,17.02
2023-05-17T17:06:15.054Z,17.19
2023-05-17T17:08:42.191Z,17.25
2023-05-17T17:11:09.086Z,17.21
2023-05-17T17:13:35.996Z,17.35
2023-05-17T17:16:03.041Z,17.31
2023-05-17T17:18:30.042Z,17.26
2023-05-17T17:20:57.449Z,17.27
2023-05-17T17:23:24.327Z,17.21
2023-05-17T17:25:51.157Z,17.11
2023-05-17T17:28:18.027Z,17.07
2023-05-17T17:30:44.949Z,16.93
2023-05-17T17:33:11.878Z,16.83
2023-05-17T17:35:38.909Z,16.71
2023-05-17T17:38:06.172Z,16.69
2023-05-17T17:40:33.248Z,16.62
2023-05-17T17:43:00.280Z,16.53
2023-05-17T17:45:27.144Z,16.42
2023-05-17T17:47:54.378Z,16.33
2023-05-17T17:50:21.721Z,16.12
2023-05-17T17:52:49.896Z,16.09
2023-05-17T17:55:17.056Z,16.02
2023-05-17T17:57:43.954Z,15.91
2023-05-17T18:00:12.787Z,15.84
2023-05-17T18:02:40.056Z,15.70
2023-05-17T18:05:07.526Z,15.62
2023-05-17T18:07:34.546Z,15.54
2023-05-17T18:10:01.947Z,15.50
2023-05-17T18:12:29.104Z,15.42
2023-05-17T18:14:56.182Z,15.29
2023-05-17T18:17:23.226Z,15.29
2023-05-17T18:19:50.414Z,15.18
2023-05-17T18:22:17.428Z,15.01
2023-05-17T18:24:45.043Z,14.98
2023-05-17T18:27:13.761Z,14.86
2023-05-17T18:29:41.421Z,14.80
2023-05-17T18:32:09.661Z,14.61
2023-05-17T18:34:36.908Z,14.54
2023-05-17T18:37:04.001Z,14.41
2023-05-17T18:39:31.011Z,14.33
2023-05-17T18:41:57.940Z,14.30
2023-05-17T18:44:24.771Z,14.21
2023-05-17T18:46:51.962Z,14.15
2023-05-17T18:49:18.827Z,14.04
2023-05-17T18:51:45.700Z,13.90
2023-05-17T18:54:12.590Z,13.83
2023-05-17T18:56:39.500Z,13.73
2023-05-17T18:59:06.355Z,13.65
2023-05-17T19:01:33.374Z,13.59
2023-05-17T19:04:00.873Z,13.54
2023-05-17T19:06:27.864Z,13.45
2023-05-17T19:08:55.509Z,13.37
2023-05-17T19:11:22.581Z,13.29
2023-05-17T19:13:49.649Z,13.20
2023-05-17T19:16:16.898Z,13.13
2023-05-17T19:18:43.860Z,12.99
2023-05-17T19:21:10.813Z,12.89
2023-05-17T19:23:37.710Z,12.80
2023-05-17T19:26:04.612Z,12.69
2023-05-17T19:28:33.037Z,12.65
2023-05-17T19:30:59.969Z,12.60
2023-05-17T19:33:26.844Z,12.48
2023-05-17T19:35:53.708Z,12.50
2023-05-17T19:38:20.546Z,12.51
2023-05-17T19:40:47.467Z,12.48
2023-05-17T19:43:14.294Z,12.48
2023-05-17T19:45:42.783Z,12.48
2023-05-17T19:48:09.965Z,12.41
2023-05-17T19:50:36.907Z,12.38
2023-05-17T19:53:03.851Z,12.35
2023-05-17T19:55:30.824Z,12.35
2023-05-17T19:57:57.977Z,12.31
2023-05-17T20:00:25.006Z,12.20
2023-05-17T20:02:52.100Z,12.14
2023-05-17T20:05:19.697Z,12.07
2023-05-17T20:07:46.552Z,12.02
2023-05-17T20:10:13.485Z,12.01
2023-05-17T20:12:40.866Z,11.97
2023-05-17T20:15:08.816Z,11.96
2023-05-17T20:17:35.830Z,11.91
2023-05-17T20:20:02.784Z,11.79
2023-05-17T20:22:29.767Z,11.60
2023-05-17T20:24:57.900Z,11.40
2023-05-17T20:27:26.262Z,11.33
2023-05-17T20:29:53.251Z,11.29
2023-05-17T20:32:20.156Z,11.29
2023-05-17T20:34:47.058Z,11.33
2023-05-17T20:37:13.986Z,11.36
2023-05-17T20:39:40.902Z,11.37
2023-05-17T20:42:07.889Z,11.39
2023-05-17T20:44:34.872Z,11.34
2023-05-17T20:47:02.167Z,11.36
2023-05-17T20:49:28.980Z,11.26
2023-05-17T20:52:03.311Z,11.18
2023-05-17T20:54:30.669Z,11.15
2023-05-17T20:57:00.606Z,11.12
2023-05-17T20:59:27.538Z,11.09
2023-05-17T21:01:54.496Z,10.98
2023-05-17T21:04:21.610Z,10.93
2023-05-17T21:06:48.472Z,10.92
2023-05-17T21:09:15.472Z,10.87
2023-05-17T21:11:44.111Z,10.85
2023-05-17T21:14:11.003Z,10.84
2023-05-17T21:16:38.064Z,10.82
2023-05-17T21:19:05.128Z,10.84
2023-05-17T21:21:32.067Z,10.82
2023-05-17T21:23:58.939Z,10.82
2023-05-17T21:28:55.067Z,10.82
2023-05-17T21:31:21.989Z,10.81
2023-05-17T21:33:49.678Z,10.78
2023-05-17T21:36:17.399Z,10.84
2023-05-17T21:38:44.965Z,10.82
2023-05-17T21:41:11.812Z,10.81
2023-05-17T21:43:38.850Z,10.87
2023-05-17T21:46:05.801Z,10.85
2023-05-17T21:48:33.801Z,10.77
2023-05-17T21:51:00.891Z,10.68
2023-05-17T21:53:27.702Z,10.63
2023-05-17T21:56:01.879Z,10.53
2023-05-17T21:58:31.358Z,10.52
2023-05-17T22:00:58.595Z,10.53
2023-05-17T22:03:25.911Z,10.51
2023-05-17T22:05:52.917Z,10.54
2023-05-17T22:08:19.791Z,10.51
2023-05-17T22:10:46.717Z,10.49
2023-05-17T22:13:15.820Z,10.49
2023-05-17T22:15:42.898Z,10.47
2023-05-17T22:18:13.702Z,10.47
2023-05-17T22:20:40.762Z,10.46
2023-05-17T22:23:07.725Z,10.43
2023-05-17T22:25:36.047Z,10.40
2023-05-17T22:28:03.267Z,10.40
2023-05-17T22:30:30.354Z,10.35
2023-05-17T22:32:57.596Z,10.35
2023-05-17T22:35:24.721Z,10.32
2023-05-17T22:37:53.343Z,10.28
2023-05-17T22:40:20.794Z,10.28
2023-05-17T22:42:48.184Z,10.27
2023-05-17T22:45:15.126Z,10.24
2023-05-17T22:47:46.446Z,10.22
2023-05-17T22:50:15.609Z,10.18
2023-05-17T22:52:43.377Z,10.10
2023-05-17T22:55:11.305Z,9.98
2023-05-17T22:57:38.532Z,9.87
2023-05-17T23:00:08.836Z,9.79
2023-05-17T23:02:36.267Z,9.79
2023-05-17T23:05:03.758Z,9.73
2023-05-17T23:07:36.835Z,9.69
2023-05-17T23:10:09.740Z,9.63
2023-05-17T23:12:37.352Z,9.57
2023-05-17T23:15:06.028Z,9.52
2023-05-17T23:17:34.032Z,9.51
2023-05-17T23:20:10.178Z,9.49
2023-05-17T23:22:38.822Z,9.39
2023-05-17T23:25:06.771Z,9.36
2023-05-17T23:27:35.336Z,9.40
2023-05-17T23:30:02.806Z,9.38
2023-05-17T23:32:32.433Z,9.34
2023-05-17T23:35:06.127Z,9.29
2023-05-17T23:37:33.893Z,9.24
2023-05-17T23:40:01.421Z,9.22
2023-05-17T23:42:31.849Z,9.16
2023-05-17T23:45:02.827Z,9.11
2023-05-17T23:47:33.371Z,9.17
2023-05-17T23:50:00.898Z,9.18
2023-05-17T23:52:32.218Z,9.21
2023-05-17T23:54:59.169Z,9.21
2023-05-17T23:57:26.104Z,9.20
2023-05-17T23:59:53.007Z,9.21
